Ridgway, CO

12:06 AM MST on December 28, 2014 (GMT -0700)
MesoWest IDARADO CO US SNOTEL | Change Station
CLOSE
Current Station
Personal Weather Station
Location: Silverton, CO
Elevation: 9799 ft
Nearby Weather Stations

Elev 9799 ft 37.93 °N, 107.68 °W | Updated 33 days ago

Partly Cloudy
Partly Cloudy
1 °F
Feels Like -11 °F
N
9
Wind Variable Wind from SW
Gusts 9 mph

Today
High -- | Low -- °F
--% Chance of Precip.
Yesterday
High -- | Low -- °F
Precip. -- in
7:25 AM 4:59 PM
Waxing Crescent, 44% visible
Pressure 30.15 in
Visibility 10.0 miles
Clouds Clear
Windchill -11 °F
Dew Point -8 °F
Humidity 67%
Rainfall 0.02 in
Snow Depth Not available.
UV 0 out of 12
Pollen .10 out of 12
Air Quality Not available.
Flu Activity Not available.
METAR KTEX 280655Z AUTO 12006KT 10SM CLR M15/M19 A3015 RMK AO2 T11491186

More Conditions Fewer Conditions

Pressure 30.15 in
Visibility 10.0 miles
Clouds Clear
Windchill -11 °F
Dew Point -8 °F
Humidity 67%
Rainfall 0.02 in
Snow Depth Not available.
UV 0 out of 12
Pollen .10 out of 12
Air Quality Not available.
Flu Activity Not available.
METAR KTEX 280655Z AUTO 12006KT 10SM CLR M15/M19 A3015 RMK AO2 T11491186

More Conditions Fewer Conditions

10-Day Weather Forecast

Almanac

Astronomy

Dec. 28, 2014 Rise Set
Actual Time
Civil Twilight
Nautical Twilight
Astronomical Twilight
Moon
Length of Visible Light
Length of Day
Tomorrow will be .
, % of the Moon is Illuminated

Today's Extremes

State Highs State Lows

Community

WunderPhotos

Upload Photos

1,781,209 photos uploaded!

WunderBlogs® & News

Nearby

Air Quality

  Air Quality AQ Index Pollutant
Not available.

Snow Depth

Station Depth Elevation

Earthquake Activity

City Distance Mag. Time & Date
Minimum magnitude displayed is 2.5.

Coastal Water Temperatures

Place Temperature

Nearby Weather Stations